sensor_id;sensor_type;location;lat;lon;timestamp;P1;durP1;ratioP1;P2;durP2;ratioP2
63555;SDS011;49700;48.072;7.800;2024-01-30T00:00:08;9.07;;;7.87;;
63555;SDS011;49700;48.072;7.800;2024-01-30T00:02:34;16.38;;;8.18;;
63555;SDS011;49700;48.072;7.800;2024-01-30T00:04:59;8.27;;;7.07;;
63555;SDS011;49700;48.072;7.800;2024-01-30T00:07:24;9.90;;;6.30;;
63555;SDS011;49700;48.072;7.800;2024-01-30T00:09:50;7.73;;;5.90;;
63555;SDS011;49700;48.072;7.800;2024-01-30T00:12:16;8.00;;;6.97;;
63555;SDS011;49700;48.072;7.800;2024-01-30T00:14:41;11.40;;;7.10;;
63555;SDS011;49700;48.072;7.800;2024-01-30T00:17:09;10.35;;;7.05;;
63555;SDS011;49700;48.072;7.800;2024-01-30T00:19:35;14.52;;;7.65;;
63555;SDS011;49700;48.072;7.800;2024-01-30T00:22:00;11.77;;;6.20;;
63555;SDS011;49700;48.072;7.800;2024-01-30T00:24:26;8.70;;;7.10;;
63555;SDS011;49700;48.072;7.800;2024-01-30T00:26:51;15.10;;;7.50;;
63555;SDS011;49700;48.072;7.800;2024-01-30T00:29:17;13.93;;;6.50;;
63555;SDS011;49700;48.072;7.800;2024-01-30T00:31:45;12.48;;;6.57;;
63555;SDS011;49700;48.072;7.800;2024-01-30T00:34:10;8.38;;;6.40;;
63555;SDS011;49700;48.072;7.800;2024-01-30T00:36:36;6.53;;;5.90;;
63555;SDS011;49700;48.072;7.800;2024-01-30T00:39:02;9.88;;;7.50;;
63555;SDS011;49700;48.072;7.800;2024-01-30T00:41:31;10.77;;;5.72;;
63555;SDS011;49700;48.072;7.800;2024-01-30T00:43:56;12.30;;;6.63;;
63555;SDS011;49700;48.072;7.800;2024-01-30T00:46:22;6.70;;;5.10;;
63555;SDS011;49700;48.072;7.800;2024-01-30T00:48:47;10.33;;;5.90;;
63555;SDS011;49700;48.072;7.800;2024-01-30T00:51:13;13.53;;;5.33;;
63555;SDS011;49700;48.072;7.800;2024-01-30T00:53:38;10.43;;;6.00;;
63555;SDS011;49700;48.072;7.800;2024-01-30T00:56:04;10.90;;;7.03;;
63555;SDS011;49700;48.072;7.800;2024-01-30T00:58:29;6.80;;;5.40;;
63555;SDS011;49700;48.072;7.800;2024-01-30T01:00:58;9.48;;;5.35;;
63555;SDS011;49700;48.072;7.800;2024-01-30T01:03:23;8.57;;;6.07;;
63555;SDS011;49700;48.072;7.800;2024-01-30T01:05:49;13.90;;;6.93;;
63555;SDS011;49700;48.072;7.800;2024-01-30T01:08:14;11.27;;;8.57;;
63555;SDS011;49700;48.072;7.800;2024-01-30T01:10:40;18.20;;;7.13;;
63555;SDS011;49700;48.072;7.800;2024-01-30T01:13:05;10.30;;;6.53;;
63555;SDS011;49700;48.072;7.800;2024-01-30T01:15:31;9.80;;;7.60;;
63555;SDS011;49700;48.072;7.800;2024-01-30T01:17:56;10.17;;;7.30;;
63555;SDS011;49700;48.072;7.800;2024-01-30T01:20:22;12.37;;;7.87;;
63555;SDS011;49700;48.072;7.800;2024-01-30T01:22:47;9.50;;;6.83;;
63555;SDS011;49700;48.072;7.800;2024-01-30T01:25:12;9.63;;;5.83;;
63555;SDS011;49700;48.072;7.800;2024-01-30T01:27:38;8.50;;;5.60;;
63555;SDS011;49700;48.072;7.800;2024-01-30T01:30:07;6.63;;;5.55;;
63555;SDS011;49700;48.072;7.800;2024-01-30T01:32:34;10.68;;;6.07;;
63555;SDS011;49700;48.072;7.800;2024-01-30T01:35:00;9.33;;;5.37;;
63555;SDS011;49700;48.072;7.800;2024-01-30T01:37:25;10.20;;;5.37;;
63555;SDS011;49700;48.072;7.800;2024-01-30T01:39:52;7.78;;;4.03;;
63555;SDS011;49700;48.072;7.800;2024-01-30T01:42:17;6.03;;;4.63;;
63555;SDS011;49700;48.072;7.800;2024-01-30T01:44:43;12.47;;;5.27;;
63555;SDS011;49700;48.072;7.800;2024-01-30T01:47:08;7.97;;;6.10;;
63555;SDS011;49700;48.072;7.800;2024-01-30T01:49:34;9.37;;;6.20;;
63555;SDS011;49700;48.072;7.800;2024-01-30T01:51:59;6.03;;;5.37;;
63555;SDS011;49700;48.072;7.800;2024-01-30T01:54:25;7.78;;;6.03;;
63555;SDS011;49700;48.072;7.800;2024-01-30T01:56:53;8.73;;;6.80;;
63555;SDS011;49700;48.072;7.800;2024-01-30T01:59:19;6.60;;;5.70;;
63555;SDS011;49700;48.072;7.800;2024-01-30T02:01:45;7.68;;;4.78;;
63555;SDS011;49700;48.072;7.800;2024-01-30T02:04:14;7.70;;;5.30;;
63555;SDS011;49700;48.072;7.800;2024-01-30T02:06:39;10.20;;;5.47;;
63555;SDS011;49700;48.072;7.800;2024-01-30T02:09:05;5.83;;;4.93;;
63555;SDS011;49700;48.072;7.800;2024-01-30T02:11:31;8.40;;;5.57;;
63555;SDS011;49700;48.072;7.800;2024-01-30T02:13:57;6.47;;;4.88;;
63555;SDS011;49700;48.072;7.800;2024-01-30T02:16:26;6.90;;;6.22;;
63555;SDS011;49700;48.072;7.800;2024-01-30T02:18:53;7.88;;;5.10;;
63555;SDS011;49700;48.072;7.800;2024-01-30T02:21:24;9.53;;;5.30;;
63555;SDS011;49700;48.072;7.800;2024-01-30T02:23:50;10.07;;;5.40;;
63555;SDS011;49700;48.072;7.800;2024-01-30T02:26:17;8.30;;;5.20;;
63555;SDS011;49700;48.072;7.800;2024-01-30T02:28:42;11.53;;;5.70;;
63555;SDS011;49700;48.072;7.800;2024-01-30T02:31:08;5.57;;;4.87;;
63555;SDS011;49700;48.072;7.800;2024-01-30T02:33:34;9.07;;;5.60;;
63555;SDS011;49700;48.072;7.800;2024-01-30T02:35:59;7.43;;;5.70;;
63555;SDS011;49700;48.072;7.800;2024-01-30T02:38:25;9.87;;;6.20;;
63555;SDS011;49700;48.072;7.800;2024-01-30T02:40:51;9.88;;;7.13;;
63555;SDS011;49700;48.072;7.800;2024-01-30T02:43:17;8.50;;;5.90;;
63555;SDS011;49700;48.072;7.800;2024-01-30T02:45:43;8.40;;;6.70;;
63555;SDS011;49700;48.072;7.800;2024-01-30T02:48:08;9.50;;;6.23;;
63555;SDS011;49700;48.072;7.800;2024-01-30T02:50:34;6.03;;;5.37;;
63555;SDS011;49700;48.072;7.800;2024-01-30T02:53:00;8.55;;;5.65;;
63555;SDS011;49700;48.072;7.800;2024-01-30T02:55:25;6.43;;;5.20;;
63555;SDS011;49700;48.072;7.800;2024-01-30T02:57:51;8.73;;;5.40;;
63555;SDS011;49700;48.072;7.800;2024-01-30T03:00:16;7.63;;;6.60;;
63555;SDS011;49700;48.072;7.800;2024-01-30T03:02:42;12.90;;;6.50;;
63555;SDS011;49700;48.072;7.800;2024-01-30T03:05:07;10.20;;;5.47;;
63555;SDS011;49700;48.072;7.800;2024-01-30T03:07:33;6.20;;;5.27;;
63555;SDS011;49700;48.072;7.800;2024-01-30T03:09:59;9.80;;;5.30;;
63555;SDS011;49700;48.072;7.800;2024-01-30T03:12:24;8.07;;;5.00;;
63555;SDS011;49700;48.072;7.800;2024-01-30T03:14:50;5.80;;;4.40;;
63555;SDS011;49700;48.072;7.800;2024-01-30T03:17:15;8.30;;;4.53;;
63555;SDS011;49700;48.072;7.800;2024-01-30T03:19:41;8.40;;;5.17;;
63555;SDS011;49700;48.072;7.800;2024-01-30T03:22:06;5.63;;;4.80;;
63555;SDS011;49700;48.072;7.800;2024-01-30T03:24:32;8.60;;;5.30;;
63555;SDS011;49700;48.072;7.800;2024-01-30T03:26:57;11.00;;;5.00;;
63555;SDS011;49700;48.072;7.800;2024-01-30T03:29:23;6.20;;;4.20;;
63555;SDS011;49700;48.072;7.800;2024-01-30T03:31:48;5.30;;;4.80;;
63555;SDS011;49700;48.072;7.800;2024-01-30T03:34:14;5.63;;;4.70;;
63555;SDS011;49700;48.072;7.800;2024-01-30T03:36:39;9.40;;;5.10;;
63555;SDS011;49700;48.072;7.800;2024-01-30T03:39:05;8.80;;;6.57;;
63555;SDS011;49700;48.072;7.800;2024-01-30T03:41:31;10.38;;;7.15;;
63555;SDS011;49700;48.072;7.800;2024-01-30T03:43:56;9.80;;;5.97;;
63555;SDS011;49700;48.072;7.800;2024-01-30T03:46:22;6.57;;;5.30;;
63555;SDS011;49700;48.072;7.800;2024-01-30T03:48:47;6.97;;;4.83;;
63555;SDS011;49700;48.072;7.800;2024-01-30T03:51:13;7.97;;;5.30;;
63555;SDS011;49700;48.072;7.800;2024-01-30T03:53:40;8.07;;;5.38;;
63555;SDS011;49700;48.072;7.800;2024-01-30T03:56:06;7.38;;;5.68;;
63555;SDS011;49700;48.072;7.800;2024-01-30T03:58:32;7.57;;;4.47;;
63555;SDS011;49700;48.072;7.800;2024-01-30T04:00:58;9.93;;;6.00;;
63555;SDS011;49700;48.072;7.800;2024-01-30T04:03:23;9.03;;;5.60;;
63555;SDS011;49700;48.072;7.800;2024-01-30T04:05:49;7.77;;;5.10;;
63555;SDS011;49700;48.072;7.800;2024-01-30T04:08:16;8.05;;;6.22;;
63555;SDS011;49700;48.072;7.800;2024-01-30T04:10:41;7.47;;;4.97;;
63555;SDS011;49700;48.072;7.800;2024-01-30T04:13:07;8.90;;;5.77;;
63555;SDS011;49700;48.072;7.800;2024-01-30T04:15:32;6.00;;;5.40;;
63555;SDS011;49700;48.072;7.800;2024-01-30T04:17:58;8.60;;;5.17;;
63555;SDS011;49700;48.072;7.800;2024-01-30T04:20:26;9.50;;;5.43;;
63555;SDS011;49700;48.072;7.800;2024-01-30T04:22:52;6.97;;;4.90;;
63555;SDS011;49700;48.072;7.800;2024-01-30T04:25:17;8.00;;;5.00;;
63555;SDS011;49700;48.072;7.800;2024-01-30T04:27:43;9.87;;;6.17;;
63555;SDS011;49700;48.072;7.800;2024-01-30T04:30:09;6.70;;;5.20;;
63555;SDS011;49700;48.072;7.800;2024-01-30T04:32:35;6.80;;;5.47;;
63555;SDS011;49700;48.072;7.800;2024-01-30T04:35:01;5.80;;;5.13;;
63555;SDS011;49700;48.072;7.800;2024-01-30T04:37:26;6.43;;;5.00;;
63555;SDS011;49700;48.072;7.800;2024-01-30T04:39:54;6.60;;;5.40;;
63555;SDS011;49700;48.072;7.800;2024-01-30T04:42:19;9.10;;;5.20;;
63555;SDS011;49700;48.072;7.800;2024-01-30T04:44:45;6.20;;;4.43;;
63555;SDS011;49700;48.072;7.800;2024-01-30T04:47:10;6.00;;;5.40;;
63555;SDS011;49700;48.072;7.800;2024-01-30T04:49:40;7.38;;;5.35;;
63555;SDS011;49700;48.072;7.800;2024-01-30T04:52:06;5.95;;;4.70;;
63555;SDS011;49700;48.072;7.800;2024-01-30T04:54:32;9.57;;;5.68;;
63555;SDS011;49700;48.072;7.800;2024-01-30T04:56:58;7.75;;;5.75;;
63555;SDS011;49700;48.072;7.800;2024-01-30T04:59:23;9.20;;;6.83;;
63555;SDS011;49700;48.072;7.800;2024-01-30T05:01:49;11.97;;;4.93;;
63555;SDS011;49700;48.072;7.800;2024-01-30T05:04:14;6.93;;;5.07;;
63555;SDS011;49700;48.072;7.800;2024-01-30T05:06:40;6.87;;;5.63;;
63555;SDS011;49700;48.072;7.800;2024-01-30T05:09:05;6.47;;;5.27;;
63555;SDS011;49700;48.072;7.800;2024-01-30T05:11:30;8.57;;;7.00;;
63555;SDS011;49700;48.072;7.800;2024-01-30T05:13:56;9.00;;;6.50;;
63555;SDS011;49700;48.072;7.800;2024-01-30T05:16:22;10.13;;;5.93;;
63555;SDS011;49700;48.072;7.800;2024-01-30T05:18:47;9.23;;;5.53;;
63555;SDS011;49700;48.072;7.800;2024-01-30T05:21:13;13.20;;;7.50;;
63555;SDS011;49700;48.072;7.800;2024-01-30T05:23:39;7.47;;;6.63;;
63555;SDS011;49700;48.072;7.800;2024-01-30T05:26:07;8.07;;;6.00;;
63555;SDS011;49700;48.072;7.800;2024-01-30T05:28:33;9.27;;;5.95;;
63555;SDS011;49700;48.072;7.800;2024-01-30T05:31:00;7.43;;;6.57;;
63555;SDS011;49700;48.072;7.800;2024-01-30T05:33:26;8.00;;;6.50;;
63555;SDS011;49700;48.072;7.800;2024-01-30T05:35:51;9.43;;;7.87;;
63555;SDS011;49700;48.072;7.800;2024-01-30T05:54:29;10.38;;;6.20;;
63555;SDS011;49700;48.072;7.800;2024-01-30T05:56:54;7.43;;;6.40;;
63555;SDS011;49700;48.072;7.800;2024-01-30T05:59:20;7.57;;;5.70;;
63555;SDS011;49700;48.072;7.800;2024-01-30T06:01:46;9.90;;;7.80;;
63555;SDS011;49700;48.072;7.800;2024-01-30T06:04:12;10.80;;;7.57;;
63555;SDS011;49700;48.072;7.800;2024-01-30T06:06:38;10.77;;;8.33;;
63555;SDS011;49700;48.072;7.800;2024-01-30T06:09:03;10.93;;;8.30;;
63555;SDS011;49700;48.072;7.800;2024-01-30T06:11:29;11.77;;;7.80;;
63555;SDS011;49700;48.072;7.800;2024-01-30T06:13:54;8.83;;;6.33;;
63555;SDS011;49700;48.072;7.800;2024-01-30T06:16:20;10.10;;;6.30;;
63555;SDS011;49700;48.072;7.800;2024-01-30T06:18:48;11.23;;;6.65;;
63555;SDS011;49700;48.072;7.800;2024-01-30T06:21:13;11.63;;;8.57;;
63555;SDS011;49700;48.072;7.800;2024-01-30T06:23:46;16.83;;;10.70;;
63555;SDS011;49700;48.072;7.800;2024-01-30T06:26:12;12.23;;;8.27;;
63555;SDS011;49700;48.072;7.800;2024-01-30T06:28:37;12.37;;;8.50;;
63555;SDS011;49700;48.072;7.800;2024-01-30T06:31:03;9.30;;;6.87;;
63555;SDS011;49700;48.072;7.800;2024-01-30T06:33:28;10.10;;;7.13;;
63555;SDS011;49700;48.072;7.800;2024-01-30T06:35:53;15.50;;;9.43;;
63555;SDS011;49700;48.072;7.800;2024-01-30T06:38:19;9.77;;;8.50;;
63555;SDS011;49700;48.072;7.800;2024-01-30T06:40:44;11.03;;;8.87;;
63555;SDS011;49700;48.072;7.800;2024-01-30T06:43:10;13.73;;;8.43;;
63555;SDS011;49700;48.072;7.800;2024-01-30T06:45:36;9.02;;;6.30;;
63555;SDS011;49700;48.072;7.800;2024-01-30T06:48:05;6.57;;;5.82;;
63555;SDS011;49700;48.072;7.800;2024-01-30T06:50:31;9.27;;;5.85;;
63555;SDS011;49700;48.072;7.800;2024-01-30T06:52:56;9.13;;;7.40;;
63555;SDS011;49700;48.072;7.800;2024-01-30T06:55:22;8.17;;;6.43;;
63555;SDS011;49700;48.072;7.800;2024-01-30T06:57:47;7.77;;;6.30;;
63555;SDS011;49700;48.072;7.800;2024-01-30T07:00:18;8.85;;;6.10;;
63555;SDS011;49700;48.072;7.800;2024-01-30T07:02:44;10.88;;;7.47;;
63555;SDS011;49700;48.072;7.800;2024-01-30T07:05:10;7.60;;;6.10;;
63555;SDS011;49700;48.072;7.800;2024-01-30T07:07:35;7.40;;;6.33;;
63555;SDS011;49700;48.072;7.800;2024-01-30T07:10:01;10.50;;;7.53;;
63555;SDS011;49700;48.072;7.800;2024-01-30T07:12:30;9.63;;;8.63;;
63555;SDS011;49700;48.072;7.800;2024-01-30T07:14:56;10.90;;;8.38;;
63555;SDS011;49700;48.072;7.800;2024-01-30T07:17:21;13.03;;;8.77;;
63555;SDS011;49700;48.072;7.800;2024-01-30T07:19:47;10.20;;;9.03;;
63555;SDS011;49700;48.072;7.800;2024-01-30T07:22:12;9.60;;;7.07;;
63555;SDS011;49700;48.072;7.800;2024-01-30T07:24:41;13.40;;;5.60;;
63555;SDS011;49700;48.072;7.800;2024-01-30T07:27:09;7.65;;;6.32;;
63555;SDS011;49700;48.072;7.800;2024-01-30T07:29:35;9.30;;;6.70;;
63555;SDS011;49700;48.072;7.800;2024-01-30T07:32:00;8.20;;;6.50;;
63555;SDS011;49700;48.072;7.800;2024-01-30T07:34:25;7.33;;;5.67;;
63555;SDS011;49700;48.072;7.800;2024-01-30T07:36:52;10.18;;;6.45;;
63555;SDS011;49700;48.072;7.800;2024-01-30T07:39:20;13.00;;;9.50;;
63555;SDS011;49700;48.072;7.800;2024-01-30T07:41:48;9.60;;;8.13;;
63555;SDS011;49700;48.072;7.800;2024-01-30T07:44:14;6.03;;;4.45;;
63555;SDS011;49700;48.072;7.800;2024-01-30T07:46:39;5.33;;;4.40;;
63555;SDS011;49700;48.072;7.800;2024-01-30T07:49:04;4.90;;;3.63;;
63555;SDS011;49700;48.072;7.800;2024-01-30T07:51:30;6.33;;;3.17;;
63555;SDS011;49700;48.072;7.800;2024-01-30T07:53:56;3.42;;;2.30;;
63555;SDS011;49700;48.072;7.800;2024-01-30T07:56:22;5.13;;;3.20;;
63555;SDS011;49700;48.072;7.800;2024-01-30T07:58:48;3.77;;;3.07;;
63555;SDS011;49700;48.072;7.800;2024-01-30T08:01:14;4.17;;;3.27;;
63555;SDS011;49700;48.072;7.800;2024-01-30T08:03:40;4.13;;;3.72;;
63555;SDS011;49700;48.072;7.800;2024-01-30T08:06:07;5.63;;;3.30;;
63555;SDS011;49700;48.072;7.800;2024-01-30T08:08:32;9.27;;;5.47;;
63555;SDS011;49700;48.072;7.800;2024-01-30T08:10:58;5.17;;;4.57;;
63555;SDS011;49700;48.072;7.800;2024-01-30T08:13:23;4.20;;;3.90;;
63555;SDS011;49700;48.072;7.800;2024-01-30T08:15:49;3.63;;;3.00;;
63555;SDS011;49700;48.072;7.800;2024-01-30T08:18:14;4.27;;;3.87;;
63555;SDS011;49700;48.072;7.800;2024-01-30T08:20:39;6.80;;;4.27;;
63555;SDS011;49700;48.072;7.800;2024-01-30T08:23:07;5.33;;;3.70;;
63555;SDS011;49700;48.072;7.800;2024-01-30T08:25:33;7.07;;;4.80;;
63555;SDS011;49700;48.072;7.800;2024-01-30T08:27:58;11.20;;;6.50;;
63555;SDS011;49700;48.072;7.800;2024-01-30T08:30:25;6.57;;;4.70;;
63555;SDS011;49700;48.072;7.800;2024-01-30T08:32:50;6.40;;;3.77;;
63555;SDS011;49700;48.072;7.800;2024-01-30T08:35:15;8.53;;;5.07;;
63555;SDS011;49700;48.072;7.800;2024-01-30T08:37:41;3.92;;;2.72;;
63555;SDS011;49700;48.072;7.800;2024-01-30T08:40:07;7.37;;;5.00;;
63555;SDS011;49700;48.072;7.800;2024-01-30T08:42:36;7.50;;;4.45;;
63555;SDS011;49700;48.072;7.800;2024-01-30T08:45:02;10.43;;;4.43;;
63555;SDS011;49700;48.072;7.800;2024-01-30T08:47:28;7.00;;;5.25;;
63555;SDS011;49700;48.072;7.800;2024-01-30T08:49:53;6.60;;;5.20;;
63555;SDS011;49700;48.072;7.800;2024-01-30T08:52:18;9.03;;;5.20;;
63555;SDS011;49700;48.072;7.800;2024-01-30T08:54:44;7.80;;;4.43;;
63555;SDS011;49700;48.072;7.800;2024-01-30T08:57:12;5.85;;;3.90;;
63555;SDS011;49700;48.072;7.800;2024-01-30T08:59:37;5.40;;;3.37;;
63555;SDS011;49700;48.072;7.800;2024-01-30T09:02:03;3.93;;;2.63;;
63555;SDS011;49700;48.072;7.800;2024-01-30T09:04:29;6.57;;;4.15;;
63555;SDS011;49700;48.072;7.800;2024-01-30T09:06:54;3.77;;;3.17;;
63555;SDS011;49700;48.072;7.800;2024-01-30T09:09:20;3.20;;;2.30;;
63555;SDS011;49700;48.072;7.800;2024-01-30T09:11:45;7.53;;;2.93;;
63555;SDS011;49700;48.072;7.800;2024-01-30T09:14:11;6.90;;;3.43;;
63555;SDS011;49700;48.072;7.800;2024-01-30T09:16:37;4.37;;;2.67;;
63555;SDS011;49700;48.072;7.800;2024-01-30T09:19:02;4.40;;;2.80;;
63555;SDS011;49700;48.072;7.800;2024-01-30T09:21:27;3.20;;;2.83;;
63555;SDS011;49700;48.072;7.800;2024-01-30T09:23:54;5.00;;;2.93;;
63555;SDS011;49700;48.072;7.800;2024-01-30T09:26:32;3.33;;;2.28;;
63555;SDS011;49700;48.072;7.800;2024-01-30T09:28:57;5.50;;;3.33;;
63555;SDS011;49700;48.072;7.800;2024-01-30T09:31:22;4.73;;;3.50;;
63555;SDS011;49700;48.072;7.800;2024-01-30T09:33:48;6.83;;;3.50;;
63555;SDS011;49700;48.072;7.800;2024-01-30T09:36:16;3.30;;;3.00;;
63555;SDS011;49700;48.072;7.800;2024-01-30T09:38:43;5.18;;;3.47;;
63555;SDS011;49700;48.072;7.800;2024-01-30T09:41:09;6.20;;;4.27;;
63555;SDS011;49700;48.072;7.800;2024-01-30T09:43:38;20.38;;;6.13;;
63555;SDS011;49700;48.072;7.800;2024-01-30T09:46:07;6.53;;;3.20;;
63555;SDS011;49700;48.072;7.800;2024-01-30T09:48:38;6.50;;;4.20;;
63555;SDS011;49700;48.072;7.800;2024-01-30T09:51:06;6.20;;;4.07;;
63555;SDS011;49700;48.072;7.800;2024-01-30T09:53:33;8.98;;;4.95;;
63555;SDS011;49700;48.072;7.800;2024-01-30T09:55:58;9.03;;;5.60;;
63555;SDS011;49700;48.072;7.800;2024-01-30T09:58:25;7.47;;;5.97;;
63555;SDS011;49700;48.072;7.800;2024-01-30T10:00:51;9.43;;;4.73;;
63555;SDS011;49700;48.072;7.800;2024-01-30T10:03:18;5.55;;;4.28;;
63555;SDS011;49700;48.072;7.800;2024-01-30T10:05:46;6.53;;;4.28;;
63555;SDS011;49700;48.072;7.800;2024-01-30T10:08:18;5.53;;;3.63;;
63555;SDS011;49700;48.072;7.800;2024-01-30T10:10:47;5.80;;;3.55;;
63555;SDS011;49700;48.072;7.800;2024-01-30T10:13:13;4.65;;;4.15;;
63555;SDS011;49700;48.072;7.800;2024-01-30T10:15:38;4.47;;;2.40;;
63555;SDS011;49700;48.072;7.800;2024-01-30T10:18:05;3.28;;;2.15;;
63555;SDS011;49700;48.072;7.800;2024-01-30T10:20:32;3.13;;;2.47;;
63555;SDS011;49700;48.072;7.800;2024-01-30T10:22:58;5.43;;;3.67;;
63555;SDS011;49700;48.072;7.800;2024-01-30T10:25:27;2.75;;;2.40;;
63555;SDS011;49700;48.072;7.800;2024-01-30T10:27:53;9.03;;;4.87;;
63555;SDS011;49700;48.072;7.800;2024-01-30T10:30:20;9.82;;;5.13;;
63555;SDS011;49700;48.072;7.800;2024-01-30T10:32:49;6.55;;;3.83;;
63555;SDS011;49700;48.072;7.800;2024-01-30T10:35:15;5.20;;;2.93;;
63555;SDS011;49700;48.072;7.800;2024-01-30T10:37:43;4.05;;;3.30;;
63555;SDS011;49700;48.072;7.800;2024-01-30T10:40:09;2.42;;;2.20;;
63555;SDS011;49700;48.072;7.800;2024-01-30T10:42:38;3.22;;;2.50;;
63555;SDS011;49700;48.072;7.800;2024-01-30T10:45:08;3.03;;;2.30;;
63555;SDS011;49700;48.072;7.800;2024-01-30T10:47:37;5.47;;;2.78;;
63555;SDS011;49700;48.072;7.800;2024-01-30T10:50:05;8.05;;;2.85;;
63555;SDS011;49700;48.072;7.800;2024-01-30T10:52:41;3.70;;;3.40;;
63555;SDS011;49700;48.072;7.800;2024-01-30T10:55:12;2.90;;;2.30;;
63555;SDS011;49700;48.072;7.800;2024-01-30T10:57:40;3.50;;;2.55;;
63555;SDS011;49700;48.072;7.800;2024-01-30T11:00:07;3.70;;;2.43;;
63555;SDS011;49700;48.072;7.800;2024-01-30T11:02:41;2.42;;;2.00;;
63555;SDS011;49700;48.072;7.800;2024-01-30T11:05:11;3.20;;;2.05;;
63555;SDS011;49700;48.072;7.800;2024-01-30T11:07:38;2.58;;;2.38;;
63555;SDS011;49700;48.072;7.800;2024-01-30T11:10:06;4.93;;;2.60;;
63555;SDS011;49700;48.072;7.800;2024-01-30T11:12:47;2.45;;;2.25;;
63555;SDS011;49700;48.072;7.800;2024-01-30T11:15:16;5.73;;;2.80;;
63555;SDS011;49700;48.072;7.800;2024-01-30T11:17:49;3.90;;;2.20;;
63555;SDS011;49700;48.072;7.800;2024-01-30T11:22:46;3.78;;;3.00;;
63555;SDS011;49700;48.072;7.800;2024-01-30T11:25:15;13.43;;;3.53;;
63555;SDS011;49700;48.072;7.800;2024-01-30T11:27:45;5.07;;;2.67;;
63555;SDS011;49700;48.072;7.800;2024-01-30T11:30:21;2.88;;;2.22;;
63555;SDS011;49700;48.072;7.800;2024-01-30T11:32:57;2.50;;;2.03;;
63555;SDS011;49700;48.072;7.800;2024-01-30T11:35:24;3.05;;;2.03;;
63555;SDS011;49700;48.072;7.800;2024-01-30T11:37:52;2.92;;;1.92;;
63555;SDS011;49700;48.072;7.800;2024-01-30T11:40:19;2.17;;;1.95;;
63555;SDS011;49700;48.072;7.800;2024-01-30T11:42:44;2.37;;;2.10;;
63555;SDS011;49700;48.072;7.800;2024-01-30T11:45:12;3.15;;;1.88;;
63555;SDS011;49700;48.072;7.800;2024-01-30T11:47:37;3.80;;;3.50;;
63555;SDS011;49700;48.072;7.800;2024-01-30T11:50:04;3.58;;;3.22;;
63555;SDS011;49700;48.072;7.800;2024-01-30T11:52:31;3.60;;;3.30;;
63555;SDS011;49700;48.072;7.800;2024-01-30T11:54:58;5.47;;;2.90;;
63555;SDS011;49700;48.072;7.800;2024-01-30T11:57:26;3.10;;;2.80;;
63555;SDS011;49700;48.072;7.800;2024-01-30T11:59:52;3.47;;;2.83;;
63555;SDS011;49700;48.072;7.800;2024-01-30T12:02:17;3.90;;;2.20;;
63555;SDS011;49700;48.072;7.800;2024-01-30T12:04:42;4.13;;;2.60;;
63555;SDS011;49700;48.072;7.800;2024-01-30T12:07:08;2.50;;;2.27;;
63555;SDS011;49700;48.072;7.800;2024-01-30T12:09:34;3.77;;;2.97;;
63555;SDS011;49700;48.072;7.800;2024-01-30T12:12:02;4.05;;;2.88;;
63555;SDS011;49700;48.072;7.800;2024-01-30T12:14:28;2.93;;;2.63;;
63555;SDS011;49700;48.072;7.800;2024-01-30T12:16:54;4.75;;;2.95;;
63555;SDS011;49700;48.072;7.800;2024-01-30T12:19:23;4.20;;;3.50;;
63555;SDS011;49700;48.072;7.800;2024-01-30T12:21:53;5.10;;;3.97;;
63555;SDS011;49700;48.072;7.800;2024-01-30T12:24:21;3.72;;;2.70;;
63555;SDS011;49700;48.072;7.800;2024-01-30T12:26:47;6.05;;;3.53;;
63555;SDS011;49700;48.072;7.800;2024-01-30T12:29:14;4.13;;;3.63;;
63555;SDS011;49700;48.072;7.800;2024-01-30T12:31:42;3.72;;;2.90;;
63555;SDS011;49700;48.072;7.800;2024-01-30T12:34:13;4.72;;;4.18;;
63555;SDS011;49700;48.072;7.800;2024-01-30T12:36:41;3.72;;;2.55;;
63555;SDS011;49700;48.072;7.800;2024-01-30T12:39:10;5.43;;;4.60;;
63555;SDS011;49700;48.072;7.800;2024-01-30T12:41:39;7.00;;;4.53;;
63555;SDS011;49700;48.072;7.800;2024-01-30T12:44:04;5.07;;;3.67;;
63555;SDS011;49700;48.072;7.800;2024-01-30T12:46:34;4.55;;;4.15;;
63555;SDS011;49700;48.072;7.800;2024-01-30T12:49:00;4.05;;;3.53;;
63555;SDS011;49700;48.072;7.800;2024-01-30T12:51:25;4.73;;;3.40;;
63555;SDS011;49700;48.072;7.800;2024-01-30T12:53:50;3.70;;;2.90;;
63555;SDS011;49700;48.072;7.800;2024-01-30T12:56:16;3.60;;;2.67;;
63555;SDS011;49700;48.072;7.800;2024-01-30T12:58:41;4.90;;;3.10;;
63555;SDS011;49700;48.072;7.800;2024-01-30T13:01:08;3.05;;;2.55;;
63555;SDS011;49700;48.072;7.800;2024-01-30T13:03:33;3.23;;;2.83;;
63555;SDS011;49700;48.072;7.800;2024-01-30T13:06:02;4.17;;;2.73;;
63555;SDS011;49700;48.072;7.800;2024-01-30T13:08:27;4.55;;;3.85;;
63555;SDS011;49700;48.072;7.800;2024-01-30T13:10:53;6.00;;;3.60;;
63555;SDS011;49700;48.072;7.800;2024-01-30T13:13:18;3.00;;;2.80;;
63555;SDS011;49700;48.072;7.800;2024-01-30T13:15:44;3.43;;;3.07;;
63555;SDS011;49700;48.072;7.800;2024-01-30T13:18:09;5.03;;;3.43;;
63555;SDS011;49700;48.072;7.800;2024-01-30T13:20:35;3.97;;;2.70;;
63555;SDS011;49700;48.072;7.800;2024-01-30T13:23:00;4.70;;;3.20;;
63555;SDS011;49700;48.072;7.800;2024-01-30T13:25:26;3.13;;;2.83;;
63555;SDS011;49700;48.072;7.800;2024-01-30T13:27:51;3.50;;;3.20;;
63555;SDS011;49700;48.072;7.800;2024-01-30T13:30:18;3.30;;;2.80;;
63555;SDS011;49700;48.072;7.800;2024-01-30T13:32:46;5.95;;;3.75;;
63555;SDS011;49700;48.072;7.800;2024-01-30T13:35:12;7.57;;;4.07;;
63555;SDS011;49700;48.072;7.800;2024-01-30T13:37:38;3.93;;;3.23;;
63555;SDS011;49700;48.072;7.800;2024-01-30T13:40:04;3.40;;;3.10;;
63555;SDS011;49700;48.072;7.800;2024-01-30T13:42:37;4.63;;;3.45;;
63555;SDS011;49700;48.072;7.800;2024-01-30T13:45:02;4.05;;;2.90;;
63555;SDS011;49700;48.072;7.800;2024-01-30T13:47:28;2.97;;;2.60;;
63555;SDS011;49700;48.072;7.800;2024-01-30T13:49:59;3.85;;;2.20;;
63555;SDS011;49700;48.072;7.800;2024-01-30T13:52:24;3.40;;;2.90;;
63555;SDS011;49700;48.072;7.800;2024-01-30T13:54:49;3.70;;;3.10;;
63555;SDS011;49700;48.072;7.800;2024-01-30T13:57:18;3.30;;;3.00;;
63555;SDS011;49700;48.072;7.800;2024-01-30T13:59:43;4.10;;;3.20;;
63555;SDS011;49700;48.072;7.800;2024-01-30T14:02:09;3.10;;;2.80;;
63555;SDS011;49700;48.072;7.800;2024-01-30T14:04:35;3.78;;;3.25;;
63555;SDS011;49700;48.072;7.800;2024-01-30T14:07:02;4.15;;;3.53;;
63555;SDS011;49700;48.072;7.800;2024-01-30T14:09:28;5.30;;;3.90;;
63555;SDS011;49700;48.072;7.800;2024-01-30T14:11:54;6.97;;;4.53;;
63555;SDS011;49700;48.072;7.800;2024-01-30T14:14:19;4.83;;;4.20;;
63555;SDS011;49700;48.072;7.800;2024-01-30T14:16:44;3.50;;;3.20;;
63555;SDS011;49700;48.072;7.800;2024-01-30T14:19:10;6.17;;;3.60;;
63555;SDS011;49700;48.072;7.800;2024-01-30T14:21:35;4.30;;;3.53;;
63555;SDS011;49700;48.072;7.800;2024-01-30T14:24:02;3.53;;;2.78;;
63555;SDS011;49700;48.072;7.800;2024-01-30T14:26:28;6.80;;;4.43;;
63555;SDS011;49700;48.072;7.800;2024-01-30T14:28:53;4.60;;;3.90;;
63555;SDS011;49700;48.072;7.800;2024-01-30T14:31:20;6.95;;;3.40;;
63555;SDS011;49700;48.072;7.800;2024-01-30T14:33:46;5.53;;;4.05;;
63555;SDS011;49700;48.072;7.800;2024-01-30T14:36:12;4.10;;;3.60;;
63555;SDS011;49700;48.072;7.800;2024-01-30T14:38:39;5.60;;;4.37;;
63555;SDS011;49700;48.072;7.800;2024-01-30T14:41:04;6.00;;;3.97;;
63555;SDS011;49700;48.072;7.800;2024-01-30T14:43:30;4.90;;;3.78;;
63555;SDS011;49700;48.072;7.800;2024-01-30T14:45:56;8.73;;;3.67;;
63555;SDS011;49700;48.072;7.800;2024-01-30T14:48:21;3.67;;;3.33;;
63555;SDS011;49700;48.072;7.800;2024-01-30T14:50:47;3.57;;;3.27;;
63555;SDS011;49700;48.072;7.800;2024-01-30T14:53:13;3.40;;;2.83;;
63555;SDS011;49700;48.072;7.800;2024-01-30T14:55:38;4.20;;;3.80;;
63555;SDS011;49700;48.072;7.800;2024-01-30T14:58:04;5.53;;;3.47;;